Mirabel, Canada
Current Conditions -  °F | °C
As of 11:00 PM on Saturday 25 Oct 2014 (Local Time) from CYMX Reporting Station
Rain Showers Rain Showers  
Wind Chill: 50°   Ceiling: 1500
Heat Index: 50°   Visibility: 15mi
Dew Point: 48°   Wind: 7mph
Humidity: 94%   Direction: 270°W
Pressure: 29.42"   Gusts: NA
Location:  45.67°N, 73.98°W
Report Text: CYMX 260300Z 27006KT 230V320 15SM -SHRA SCT008 BKN015 BKN035 OVC050 10/09 A2942 RMK SF3SC2SC2SC1 SLP963 DENSITY ALT 300FT
Loading
Personal Weather Stations






























Interactive Weather Map
Tropical Storm Tracking
New forecast layout! Learn more

10-Day Weather Forecast

Advertisements
Track Severe Weather on mobile